Impacts TAF Board
For situational awareness. Not to be used for flight planning purposes.
IDs:

KSAN - San Diego Intl Arpt, CA, US

Issued at 0520 UTC 24 Jan 2019
Updated at 0710 UTC 24 Jan 2019
Potential Impact None Slight Moderate High
Time<<25/08Z 25/09Z 25/10Z 25/11Z 25/12Z 25/13Z 25/14Z 25/15Z 25/16Z 25/17Z 25/18Z 25/19Z 25/20Z
Type PRVL PRVL PRVL PRVL
VIS >6 >6 >6 >6
CIG -- -- -- --
Cover SKC SKC SKC SKC
FltCat VFR VFR VFR VFR
WX -- -- -- --
WDir VRB VRB VRB VRB
WSpd 5 5 5 5
WGst -- -- -- --
Raw TAF
KSAN 240520Z 2406/2512 VRB05KT P6SM SKC
  FM242100 30008KT P6SM SKC
  FM250200 VRB05KT P6SM SKC


METAR Board
Radar Display
Forecast Discussion
For situational awareness. Not to be used for flight planning purposes.